Time;durP1;ratioP1;P1;durP2;ratioP2;P2;SDS_P1;SDS_P2;PMS_P1;PMS_P2;Temp;Humidity;BMP_temperature;BMP_pressure;BME280_temperature;BME280_humidity;BME280_pressure;Samples;Min_cycle;Max_cycle;Signal;HPM_P1;HPM_P2
2023/09/27 00:01:56;;;;;;;14.48;12.43;;;17.10;99.90;;;;;;5115922;28;20160;-67
2023/09/27 00:04:21;;;;;;;14.68;11.93;;;17.10;99.90;;;;;;5080976;28;20134;-67
2023/09/27 00:06:47;;;;;;;15.90;12.35;;;17.10;99.90;;;;;;5114535;28;20489;-67
2023/09/27 00:09:14;;;;;;;16.60;12.23;;;17.10;99.90;;;;;;5097900;28;20101;-66
2023/09/27 00:11:40;;;;;;;14.60;12.48;;;17.00;99.90;;;;;;5115300;28;20055;-66
2023/09/27 00:14:06;;;;;;;17.23;13.40;;;17.00;99.90;;;;;;5115848;28;20040;-69
2023/09/27 00:16:32;;;;;;;15.52;13.23;;;17.00;99.90;;;;;;5115171;28;20511;-68
2023/09/27 00:18:58;;;;;;;17.10;13.00;;;16.90;99.90;;;;;;5097718;28;20134;-68
2023/09/27 00:21:23;;;;;;;15.25;12.85;;;16.90;99.90;;;;;;5115634;28;20051;-69
2023/09/27 00:23:49;;;;;;;15.02;12.35;;;16.90;99.90;;;;;;5096974;28;20040;-68
2023/09/27 00:26:15;;;;;;;15.95;12.52;;;16.90;99.90;;;;;;5115607;28;20483;-67
2023/09/27 00:28:40;;;;;;;14.38;12.52;;;16.90;99.90;;;;;;5114665;28;20055;-68
2023/09/27 00:31:06;;;;;;;17.33;12.57;;;16.90;99.90;;;;;;5080527;28;20056;-68
2023/09/27 00:33:32;;;;;;;15.45;11.23;;;16.90;99.90;;;;;;5114812;28;20050;-68
2023/09/27 00:35:58;;;;;;;14.93;12.52;;;16.90;99.90;;;;;;5115147;28;20043;-68
2023/09/27 00:38:24;;;;;;;15.48;11.57;;;16.90;99.90;;;;;;5097210;28;20048;-68
2023/09/27 00:40:50;;;;;;;14.55;12.50;;;16.90;99.90;;;;;;5096619;28;20058;-68
2023/09/27 00:43:33;;;;;;;17.65;11.20;;;16.90;99.90;;;;;;5115027;28;20079;-68
2023/09/27 00:46:05;;;;;;;15.27;11.38;;;16.90;99.90;;;;;;5115281;28;20130;-68
2023/09/27 00:48:31;;;;;;;14.63;11.43;;;16.80;99.90;;;;;;5115157;28;20059;-68
2023/09/27 00:50:58;;;;;;;16.05;11.32;;;16.90;99.90;;;;;;5114723;28;20504;-67
2023/09/27 00:53:28;;;;;;;14.10;12.18;;;16.80;99.90;;;;;;5114810;28;20090;-66
2023/09/27 00:55:55;;;;;;;13.98;11.25;;;16.80;99.90;;;;;;5114537;28;20179;-67
2023/09/27 00:58:22;;;;;;;13.80;11.73;;;16.80;99.90;;;;;;5114871;28;20051;-68
2023/09/27 01:00:50;;;;;;;14.93;12.20;;;16.80;99.90;;;;;;5114493;28;20093;-68
2023/09/27 01:03:16;;;;;;;15.43;11.50;;;16.80;99.90;;;;;;5114856;28;20039;-67
2023/09/27 01:05:42;;;;;;;16.65;12.43;;;16.80;99.90;;;;;;5114415;28;20048;-68
2023/09/27 01:08:08;;;;;;;14.38;11.68;;;16.70;99.90;;;;;;5096749;28;20051;-67
2023/09/27 01:10:35;;;;;;;14.68;11.60;;;16.70;99.90;;;;;;5096507;28;20050;-67
2023/09/27 01:13:02;;;;;;;20.08;13.00;;;16.70;99.90;;;;;;5114132;28;20039;-67
2023/09/27 01:15:27;;;;;;;16.42;12.50;;;16.70;99.90;;;;;;5114455;28;20104;-67
2023/09/27 01:17:58;;;;;;;17.42;12.93;;;16.70;99.90;;;;;;5079085;28;20044;-66
2023/09/27 01:20:25;;;;;;;16.75;12.88;;;16.60;99.90;;;;;;5114416;28;20044;-67
2023/09/27 01:23:01;;;;;;;16.35;12.02;;;16.60;99.90;;;;;;5113930;28;20047;-67
2023/09/27 01:25:36;;;;;;;15.45;12.02;;;16.60;99.90;;;;;;5096157;28;20047;-67
2023/09/27 01:28:07;;;;;;;16.60;12.75;;;16.50;99.90;;;;;;5095700;28;20051;-67
2023/09/27 01:30:33;;;;;;;17.77;12.40;;;16.50;99.90;;;;;;5114429;28;20048;-67
2023/09/27 01:33:06;;;;;;;13.93;12.43;;;16.50;99.90;;;;;;5113826;28;20614;-67
2023/09/27 01:35:36;;;;;;;15.48;12.30;;;16.60;99.90;;;;;;5114010;28;20047;-67
2023/09/27 01:38:04;;;;;;;16.85;12.90;;;16.50;99.90;;;;;;5113763;28;20066;-67
2023/09/27 01:40:30;;;;;;;14.18;12.68;;;16.50;99.90;;;;;;5096091;28;20130;-67
2023/09/27 01:43:00;;;;;;;14.23;12.32;;;16.50;99.90;;;;;;5078710;28;20150;-66
2023/09/27 01:45:27;;;;;;;17.65;12.77;;;16.50;99.90;;;;;;5113850;28;20043;-66
2023/09/27 01:47:53;;;;;;;14.82;12.95;;;16.40;99.90;;;;;;5113641;28;20048;-67
2023/09/27 01:50:19;;;;;;;18.88;13.75;;;16.50;99.90;;;;;;5095882;28;20501;-67
2023/09/27 01:52:46;;;;;;;14.95;13.35;;;16.40;99.90;;;;;;5113461;28;20066;-67
2023/09/27 01:55:13;;;;;;;16.10;13.27;;;16.40;99.90;;;;;;5078805;28;20130;-67
2023/09/27 01:57:38;;;;;;;18.52;14.07;;;16.40;99.90;;;;;;5095248;28;20051;-67
2023/09/27 02:00:11;;;;;;;18.67;14.73;;;16.30;99.90;;;;;;5113266;28;20514;-67
2023/09/27 02:02:41;;;;;;;20.13;13.38;;;16.30;99.90;;;;;;5113784;28;20397;-67
2023/09/27 02:05:08;;;;;;;18.08;13.73;;;16.30;99.90;;;;;;5095096;28;20107;-67
2023/09/27 02:07:33;;;;;;;15.85;13.68;;;16.30;99.90;;;;;;5113083;28;20048;-66
2023/09/27 02:09:59;;;;;;;14.43;12.90;;;16.20;99.90;;;;;;5094966;28;20054;-66
2023/09/27 02:12:25;;;;;;;17.35;12.73;;;16.20;99.90;;;;;;5113304;28;20381;-67
2023/09/27 02:14:50;;;;;;;17.20;14.48;;;16.20;99.90;;;;;;5094968;28;20055;-67
2023/09/27 02:17:16;;;;;;;17.13;13.43;;;16.10;99.90;;;;;;5111836;28;20039;-67
2023/09/27 02:19:42;;;;;;;17.67;13.52;;;16.20;99.90;;;;;;5113030;28;20550;-67
2023/09/27 02:22:08;;;;;;;16.15;13.43;;;16.10;99.90;;;;;;5094343;28;20152;-67
2023/09/27 02:24:34;;;;;;;17.70;14.10;;;16.10;99.90;;;;;;5112581;28;20104;-67
2023/09/27 02:27:00;;;;;;;18.63;13.85;;;16.10;99.90;;;;;;5077437;28;20104;-67
2023/09/27 02:29:26;;;;;;;18.73;14.38;;;16.10;99.90;;;;;;5112542;28;20131;-68
2023/09/27 02:31:52;;;;;;;16.52;13.38;;;16.10;99.90;;;;;;5112414;28;20086;-67
2023/09/27 02:34:18;;;;;;;15.65;13.50;;;16.00;99.90;;;;;;5094563;28;20463;-67
2023/09/27 02:36:45;;;;;;;17.23;13.88;;;16.00;99.90;;;;;;5112861;28;20039;-67
2023/09/27 02:39:11;;;;;;;15.85;13.75;;;16.00;99.90;;;;;;5094030;28;20500;-67
2023/09/27 02:41:37;;;;;;;18.30;14.93;;;16.00;99.90;;;;;;5094672;28;20040;-67
2023/09/27 02:44:03;;;;;;;18.30;14.95;;;16.00;99.90;;;;;;5112370;28;20134;-67
2023/09/27 02:46:29;;;;;;;19.45;14.35;;;16.00;99.90;;;;;;5094857;28;20077;-67
2023/09/27 02:48:55;;;;;;;16.52;13.77;;;15.90;99.90;;;;;;5094392;28;20044;-68
2023/09/27 02:51:21;;;;;;;18.85;14.90;;;15.90;99.90;;;;;;5078065;28;20067;-69
2023/09/27 02:53:47;;;;;;;16.95;14.07;;;15.90;99.90;;;;;;5094543;28;20039;-66
2023/09/27 02:56:13;;;;;;;17.52;14.85;;;15.90;99.90;;;;;;5094184;28;20074;-66
2023/09/27 02:58:39;;;;;;;17.50;15.65;;;15.80;99.90;;;;;;5112811;28;20039;-66
2023/09/27 03:01:05;;;;;;;21.45;15.65;;;15.80;99.90;;;;;;5112193;28;20528;-67
2023/09/27 03:03:31;;;;;;;18.75;15.35;;;15.80;99.90;;;;;;5077971;28;20055;-67
2023/09/27 03:05:58;;;;;;;18.98;15.23;;;15.80;99.90;;;;;;5112110;28;20070;-68
2023/09/27 03:08:24;;;;;;;17.45;15.65;;;15.70;99.90;;;;;;5094609;28;20047;-67
2023/09/27 03:10:50;;;;;;;17.95;15.93;;;15.70;99.90;;;;;;5112512;28;20420;-67
2023/09/27 03:13:16;;;;;;;18.45;14.95;;;15.70;99.90;;;;;;5112080;28;20035;-67
2023/09/27 03:15:43;;;;;;;24.27;16.60;;;15.70;99.90;;;;;;5112497;28;20050;-67
2023/09/27 03:18:09;;;;;;;17.13;15.30;;;15.70;99.90;;;;;;5111984;28;20047;-67
2023/09/27 03:20:36;;;;;;;17.48;15.10;;;15.70;99.90;;;;;;5096697;28;20100;-68
2023/09/27 03:23:02;;;;;;;16.77;15.05;;;15.70;99.90;;;;;;5098272;28;20051;-68
2023/09/27 03:25:28;;;;;;;19.20;15.18;;;15.60;99.90;;;;;;5116725;28;20164;-67
2023/09/27 03:27:54;;;;;;;17.98;14.93;;;15.60;99.90;;;;;;5097746;28;20070;-67
2023/09/27 03:30:20;;;;;;;18.13;16.20;;;15.60;99.90;;;;;;5115172;28;20132;-66
2023/09/27 03:32:46;;;;;;;20.63;16.40;;;15.60;99.90;;;;;;5116442;28;20048;-66
2023/09/27 03:35:12;;;;;;;18.33;15.30;;;15.60;99.90;;;;;;5098005;28;20044;-65
2023/09/27 03:37:39;;;;;;;18.25;15.40;;;15.60;99.90;;;;;;5116401;28;20091;-67
2023/09/27 03:40:15;;;;;;;20.73;16.05;;;15.60;99.90;;;;;;5115731;28;20557;-67
2023/09/27 03:42:45;;;;;;;18.23;15.98;;;15.60;99.90;;;;;;5116331;28;20040;-67
2023/09/27 03:45:11;;;;;;;18.48;15.80;;;15.50;99.90;;;;;;5115936;28;20048;-67
2023/09/27 03:47:37;;;;;;;18.63;16.38;;;15.50;99.90;;;;;;5116347;28;20091;-67
2023/09/27 03:50:03;;;;;;;22.88;16.88;;;15.50;99.90;;;;;;5115638;28;20084;-67
2023/09/27 03:52:29;;;;;;;18.05;15.23;;;15.50;99.90;;;;;;5114925;28;20044;-67
2023/09/27 03:54:55;;;;;;;23.90;15.75;;;15.50;99.90;;;;;;5098088;28;20529;-67
2023/09/27 03:57:21;;;;;;;18.25;15.70;;;15.50;99.90;;;;;;5064177;28;20510;-67
2023/09/27 03:59:46;;;;;;;20.35;16.25;;;15.50;99.90;;;;;;5098195;28;20036;-67
2023/09/27 04:02:12;;;;;;;18.27;16.00;;;15.50;99.90;;;;;;5097322;28;20039;-67
2023/09/27 04:04:38;;;;;;;21.40;16.95;;;15.50;99.90;;;;;;5115963;28;20043;-68
2023/09/27 04:07:03;;;;;;;18.27;16.42;;;15.50;99.90;;;;;;5115521;28;20117;-69
2023/09/27 04:09:29;;;;;;;21.13;16.70;;;15.50;99.90;;;;;;5115692;28;20040;-67
2023/09/27 04:11:55;;;;;;;19.50;17.45;;;15.50;99.90;;;;;;5115773;28;20051;-67
2023/09/27 04:14:21;;;;;;;21.80;17.25;;;15.40;99.90;;;;;;5097041;28;20053;-67
2023/09/27 04:16:46;;;;;;;21.60;17.30;;;15.40;99.90;;;;;;5080778;28;20122;-67
2023/09/27 04:19:13;;;;;;;20.98;16.70;;;15.40;99.90;;;;;;5114938;28;20070;-67
2023/09/27 04:21:39;;;;;;;21.70;17.08;;;15.40;99.90;;;;;;5115625;28;20051;-67
2023/09/27 04:24:05;;;;;;;20.65;17.15;;;15.40;99.90;;;;;;5115198;28;20044;-72
2023/09/27 04:26:30;;;;;;;21.65;17.48;;;15.40;99.90;;;;;;5115461;28;20052;-67
2023/09/27 04:28:56;;;;;;;23.55;18.08;;;15.30;99.90;;;;;;5097012;28;20055;-66
2023/09/27 04:31:22;;;;;;;20.48;17.48;;;15.30;99.90;;;;;;5096285;28;20048;-68
2023/09/27 04:33:48;;;;;;;34.65;17.67;;;15.30;99.90;;;;;;5097151;28;20082;-67
2023/09/27 04:36:17;;;;;;;21.02;17.80;;;15.30;99.90;;;;;;5114465;28;20086;-68
2023/09/27 04:38:47;;;;;;;21.10;18.83;;;15.30;99.90;;;;;;5115154;28;20051;-67
2023/09/27 04:41:18;;;;;;;22.15;17.83;;;15.30;99.90;;;;;;5079756;28;20055;-67
2023/09/27 04:43:44;;;;;;;21.95;17.73;;;15.30;99.90;;;;;;5115123;28;20043;-67
2023/09/27 04:46:17;;;;;;;22.35;18.40;;;15.30;99.90;;;;;;5114485;28;20051;-68
2023/09/27 04:48:44;;;;;;;24.40;19.15;;;15.30;99.90;;;;;;5096790;28;20047;-67
2023/09/27 04:51:10;;;;;;;20.52;17.90;;;15.20;99.90;;;;;;5096608;28;20513;-71
2023/09/27 04:53:39;;;;;;;23.38;18.60;;;15.20;99.90;;;;;;5096451;28;20083;-67
2023/09/27 04:56:11;;;;;;;21.23;18.58;;;15.20;99.90;;;;;;5096902;28;20365;-67
2023/09/27 04:58:38;;;;;;;23.50;19.52;;;15.20;99.90;;;;;;5114817;28;20044;-67
2023/09/27 05:01:05;;;;;;;21.35;18.88;;;15.10;99.90;;;;;;5096768;28;20047;-68
2023/09/27 05:03:31;;;;;;;21.27;18.27;;;15.10;99.90;;;;;;5114218;28;20059;-67
2023/09/27 05:05:57;;;;;;;23.30;19.40;;;15.10;99.90;;;;;;5096376;28;20047;-67
2023/09/27 05:08:24;;;;;;;20.98;18.77;;;15.10;99.90;;;;;;5096373;28;20055;-68
2023/09/27 05:10:50;;;;;;;23.05;19.40;;;15.10;99.90;;;;;;5114489;28;20127;-67
2023/09/27 05:13:20;;;;;;;22.55;19.17;;;15.10;99.90;;;;;;5095870;28;20481;-68
2023/09/27 05:15:52;;;;;;;25.85;20.35;;;15.10;99.90;;;;;;5114326;28;20054;-68
2023/09/27 05:18:18;;;;;;;24.27;19.35;;;15.00;99.90;;;;;;5113834;28;20043;-67
2023/09/27 05:20:44;;;;;;;22.98;20.48;;;15.00;99.90;;;;;;5114238;28;20425;-68
2023/09/27 05:23:11;;;;;;;24.05;20.77;;;15.00;99.90;;;;;;5078840;28;20082;-67
2023/09/27 05:25:36;;;;;;;24.02;20.73;;;15.00;99.90;;;;;;5113567;28;20044;-68
2023/09/27 05:28:03;;;;;;;23.08;20.77;;;15.00;99.90;;;;;;5113743;28;20039;-67
2023/09/27 05:30:28;;;;;;;24.17;19.98;;;15.00;99.90;;;;;;5113526;28;20104;-68
2023/09/27 05:32:54;;;;;;;25.88;21.10;;;14.90;99.90;;;;;;5113748;28;20055;-68
2023/09/27 05:35:20;;;;;;;23.67;21.17;;;14.90;99.90;;;;;;5113668;28;20047;-68
2023/09/27 05:37:46;;;;;;;25.65;21.17;;;15.00;99.90;;;;;;5095924;28;20097;-68
2023/09/27 05:40:12;;;;;;;23.90;20.92;;;15.00;99.90;;;;;;5095351;28;20130;-68
2023/09/27 05:42:39;;;;;;;25.30;21.25;;;15.00;99.90;;;;;;5094280;28;20151;-68
2023/09/27 05:45:05;;;;;;;26.20;20.80;;;15.00;99.90;;;;;;5078890;28;20131;-68
2023/09/27 05:47:33;;;;;;;25.70;21.42;;;15.00;99.90;;;;;;5113326;28;20051;-68
2023/09/27 05:49:58;;;;;;;23.60;21.02;;;15.00;99.90;;;;;;5113948;28;20415;-67
2023/09/27 05:52:25;;;;;;;27.08;22.40;;;15.00;99.90;;;;;;5112793;28;20044;-68
2023/09/27 05:54:51;;;;;;;28.20;21.48;;;15.00;99.90;;;;;;5113527;28;20055;-67
2023/09/27 05:57:17;;;;;;;28.55;21.50;;;15.00;99.90;;;;;;5095125;28;20460;-68
2023/09/27 05:59:45;;;;;;;25.65;21.90;;;15.10;99.90;;;;;;5113202;28;20110;-68
2023/09/27 06:02:16;;;;;;;29.50;21.85;;;15.10;99.90;;;;;;5095602;28;20118;-69
2023/09/27 06:04:48;;;;;;;27.90;21.13;;;15.20;99.90;;;;;;5112960;28;20460;-67
2023/09/27 06:07:15;;;;;;;25.58;21.23;;;15.20;99.90;;;;;;5078455;28;20104;-68
2023/09/27 06:09:41;;;;;;;25.65;22.15;;;15.30;99.90;;;;;;5094702;28;20544;-68
2023/09/27 06:12:07;;;;;;;26.48;21.27;;;15.30;99.90;;;;;;5078217;28;20039;-68
2023/09/27 06:14:34;;;;;;;26.23;21.05;;;15.30;99.90;;;;;;5077849;28;20530;-67
2023/09/27 06:17:03;;;;;;;27.13;21.38;;;15.30;99.90;;;;;;5111911;28;20090;-67
2023/09/27 06:19:32;;;;;;;23.73;20.90;;;15.40;99.90;;;;;;5078024;28;20059;-67
2023/09/27 06:21:58;;;;;;;24.42;21.40;;;15.40;99.90;;;;;;5094859;28;20051;-68
2023/09/27 06:24:26;;;;;;;28.73;22.73;;;15.50;99.90;;;;;;5111218;28;20069;-71
2023/09/27 06:26:52;;;;;;;23.45;20.85;;;15.50;99.90;;;;;;5061513;28;20098;-66
2023/09/27 06:29:19;;;;;;;27.17;22.67;;;15.50;99.90;;;;;;5093410;28;20469;-67
2023/09/27 06:31:52;;;;;;;25.25;21.17;;;15.50;99.90;;;;;;5093175;28;20492;-66
2023/09/27 06:34:18;;;;;;;25.80;21.08;;;15.50;99.90;;;;;;5094257;28;20048;-68
2023/09/27 06:36:48;;;;;;;24.20;21.63;;;15.60;99.90;;;;;;5077541;28;20116;-68
2023/09/27 06:39:15;;;;;;;28.90;21.20;;;15.60;99.90;;;;;;5112484;28;20529;-68
2023/09/27 06:41:42;;;;;;;23.42;20.92;;;15.60;99.90;;;;;;5112199;28;20047;-68
2023/09/27 06:44:08;;;;;;;27.48;21.98;;;15.60;99.90;;;;;;5093996;28;20047;-69
2023/09/27 06:46:36;;;;;;;30.27;22.02;;;15.60;99.90;;;;;;5060272;28;20049;-68
2023/09/27 06:49:04;;;;;;;29.60;21.75;;;15.60;99.90;;;;;;5112441;28;20039;-68
2023/09/27 06:51:30;;;;;;;24.77;21.73;;;15.60;99.90;;;;;;5093909;28;20051;-69
2023/09/27 06:53:55;;;;;;;24.98;21.83;;;15.60;99.90;;;;;;5093892;28;20096;-68
2023/09/27 06:56:21;;;;;;;30.55;22.02;;;15.70;99.90;;;;;;5094211;28;20489;-68
2023/09/27 06:58:49;;;;;;;31.75;22.38;;;15.80;99.90;;;;;;5077288;28;20044;-68
2023/09/27 07:01:15;;;;;;;25.08;20.83;;;15.90;99.90;;;;;;5112437;28;20087;-68
2023/09/27 07:03:41;;;;;;;26.45;22.38;;;16.00;99.90;;;;;;5111931;28;20079;-69
2023/09/27 07:06:07;;;;;;;28.55;22.33;;;16.10;99.90;;;;;;5094308;28;20388;-68
2023/09/27 07:08:33;;;;;;;33.03;23.25;;;16.20;99.90;;;;;;5093682;28;20377;-69
2023/09/27 07:11:06;;;;;;;27.00;22.77;;;16.40;99.90;;;;;;5112462;28;20046;-68
2023/09/27 07:13:32;;;;;;;33.75;24.65;;;16.40;99.90;;;;;;5092981;28;20069;-70
2023/09/27 07:15:59;;;;;;;30.85;26.27;;;16.50;99.90;;;;;;5093942;28;20040;-68
2023/09/27 07:18:27;;;;;;;37.67;28.38;;;16.60;99.90;;;;;;5112865;28;20047;-68
2023/09/27 07:20:52;;;;;;;36.72;29.95;;;16.70;99.90;;;;;;5111322;28;20071;-69
2023/09/27 07:23:20;;;;;;;32.63;29.08;;;16.80;99.90;;;;;;5095141;28;20044;-69
2023/09/27 07:25:47;;;;;;;34.65;29.02;;;16.90;99.90;;;;;;5111897;28;20058;-69
2023/09/27 07:28:14;;;;;;;39.20;30.80;;;17.00;99.90;;;;;;5090510;28;20056;-68
2023/09/27 07:30:39;;;;;;;34.10;26.88;;;17.20;99.90;;;;;;5091511;28;20131;-70
2023/09/27 07:33:08;;;;;;;33.35;26.45;;;17.30;99.90;;;;;;5091578;28;20136;-68
2023/09/27 07:35:35;;;;;;;31.10;25.25;;;17.50;99.90;;;;;;5089972;28;20078;-73
2023/09/27 07:38:01;;;;;;;31.33;23.77;;;17.80;99.90;;;;;;5090409;28;20150;-67
2023/09/27 07:40:27;;;;;;;28.00;22.63;;;17.90;99.90;;;;;;5091368;28;20493;-69
2023/09/27 07:42:53;;;;;;;28.27;22.30;;;17.80;99.90;;;;;;5090095;28;20167;-68
2023/09/27 07:45:22;;;;;;;25.00;22.25;;;17.80;99.90;;;;;;5090405;28;20040;-68
2023/09/27 07:47:53;;;;;;;30.02;22.20;;;17.80;99.90;;;;;;5091246;28;20052;-68
2023/09/27 07:50:27;;;;;;;32.25;21.45;;;17.80;99.90;;;;;;5090740;28;20048;-67
2023/09/27 07:53:03;;;;;;;23.02;20.02;;;17.90;99.90;;;;;;5089789;28;20098;-69
2023/09/27 07:55:32;;;;;;;23.65;18.83;;;18.10;99.90;;;;;;5091346;28;20138;-68
2023/09/27 07:57:58;;;;;;;26.40;19.30;;;18.20;99.90;;;;;;5091215;28;20405;-68
2023/09/27 08:00:29;;;;;;;25.65;20.02;;;18.30;99.90;;;;;;5091298;28;20122;-68
2023/09/27 08:02:58;;;;;;;22.58;18.85;;;18.70;99.90;;;;;;5091034;28;20353;-68
2023/09/27 08:05:24;;;;;;;23.58;18.35;;;19.30;99.90;;;;;;5091526;28;20116;-68
2023/09/27 08:07:51;;;;;;;20.63;17.73;;;19.90;99.90;;;;;;5093317;28;20044;-68
2023/09/27 08:10:17;;;;;;;19.17;17.08;;;20.50;99.90;;;;;;5095344;28;20382;-68
2023/09/27 08:12:44;;;;;;;25.45;17.38;;;21.00;99.90;;;;;;5093097;28;20052;-68
2023/09/27 08:15:12;;;;;;;19.35;16.88;;;21.50;99.90;;;;;;5093808;28;20492;-68
2023/09/27 08:17:38;;;;;;;20.48;15.93;;;22.20;99.90;;;;;;5092267;28;20390;-73
2023/09/27 08:20:05;;;;;;;18.88;15.73;;;22.70;99.90;;;;;;5095113;28;20044;-69
2023/09/27 08:22:34;;;;;;;19.90;15.18;;;23.00;99.90;;;;;;5077083;28;20082;-68
2023/09/27 08:25:00;;;;;;;18.67;14.77;;;23.50;99.90;;;;;;5093173;28;20166;-69
2023/09/27 08:27:26;;;;;;;16.55;14.32;;;23.90;99.90;;;;;;5093428;28;20063;-69
2023/09/27 08:29:53;;;;;;;22.63;15.45;;;24.10;99.90;;;;;;5112427;28;20051;-69
2023/09/27 08:32:18;;;;;;;18.48;15.23;;;24.30;99.90;;;;;;5097293;28;20059;-68
2023/09/27 08:34:46;;;;;;;17.73;14.98;;;24.20;99.90;;;;;;5114857;28;20390;-69
2023/09/27 08:37:12;;;;;;;18.55;14.02;;;24.10;99.90;;;;;;5115075;28;20066;-69
2023/09/27 08:39:39;;;;;;;18.88;13.95;;;23.90;99.90;;;;;;5080130;28;20056;-72
2023/09/27 08:42:05;;;;;;;18.60;14.20;;;23.90;99.90;;;;;;5114415;28;20131;-69
2023/09/27 08:44:31;;;;;;;16.63;13.65;;;23.90;99.90;;;;;;5115049;28;20064;-69
2023/09/27 08:46:58;;;;;;;17.33;14.32;;;24.00;99.90;;;;;;5079597;28;20469;-68
2023/09/27 08:49:24;;;;;;;19.42;13.68;;;24.00;99.90;;;;;;5096531;28;20078;-69
2023/09/27 08:51:52;;;;;;;17.90;14.07;;;24.10;99.90;;;;;;5096168;28;20043;-69
2023/09/27 08:54:20;;;;;;;17.92;14.02;;;24.10;99.90;;;;;;5096881;28;20041;-68
2023/09/27 08:56:50;;;;;;;15.80;13.30;;;23.90;99.90;;;;;;5114413;28;20094;-68
2023/09/27 08:59:20;;;;;;;18.88;12.38;;;24.00;99.90;;;;;;5096501;28;20439;-67
2023/09/27 09:01:47;;;;;;;16.48;12.52;;;24.30;99.90;;;;;;5114372;28;20040;-71
2023/09/27 09:04:13;;;;;;;13.75;11.57;;;24.70;99.90;;;;;;5096865;28;20096;-68
2023/09/27 09:06:40;;;;;;;17.08;11.73;;;24.70;99.90;;;;;;5079710;28;20055;-69
2023/09/27 09:09:12;;;;;;;18.00;11.57;;;24.50;99.90;;;;;;5095923;28;20606;-67
2023/09/27 09:11:47;;;;;;;16.98;12.18;;;24.30;99.90;;;;;;5114228;28;20503;-69
2023/09/27 09:14:22;;;;;;;16.50;12.43;;;24.00;99.90;;;;;;5095526;28;20388;-68
2023/09/27 09:16:52;;;;;;;18.83;11.93;;;23.70;99.90;;;;;;5113921;28;20058;-71
2023/09/27 09:19:25;;;;;;;17.00;12.15;;;23.50;99.90;;;;;;5114406;28;20050;-69
2023/09/27 09:22:05;;;;;;;18.45;12.50;;;23.50;99.90;;;;;;5114032;28;20083;-69
2023/09/27 09:24:35;;;;;;;21.65;13.35;;;23.30;99.90;;;;;;5114333;28;20100;-69
2023/09/27 09:27:07;;;;;;;15.77;12.20;;;23.20;99.90;;;;;;5095950;28;20058;-68
2023/09/27 09:29:53;;;;;;;16.08;10.30;;;23.20;99.90;;;;;;5113961;28;20056;-72
2023/09/27 09:32:22;;;;;;;15.65;10.32;;;23.10;99.90;;;;;;5095897;28;20074;-68
2023/09/27 09:34:53;;;;;;;21.23;11.02;;;23.00;99.90;;;;;;5095988;28;20478;-68
2023/09/27 09:37:28;;;;;;;14.73;9.45;;;22.90;99.90;;;;;;5096446;28;20054;-68
2023/09/27 09:40:15;;;;;;;17.83;10.27;;;22.90;99.90;;;;;;5113437;28;20051;-68
2023/09/27 09:42:42;;;;;;;13.85;8.93;;;22.80;99.90;;;;;;5114092;28;20052;-69
2023/09/27 09:45:12;;;;;;;14.85;8.65;;;22.80;99.90;;;;;;5095500;28;20058;-68
2023/09/27 09:47:41;;;;;;;15.60;8.95;;;22.80;99.90;;;;;;5114178;28;20050;-69
2023/09/27 09:50:11;;;;;;;13.48;7.63;;;22.70;99.90;;;;;;5113330;28;20108;-69
2023/09/27 09:52:39;;;;;;;11.80;6.80;;;22.60;99.90;;;;;;5113671;28;20043;-70
2023/09/27 09:55:08;;;;;;;10.85;7.43;;;22.60;99.90;;;;;;5078155;28;20051;-69
2023/09/27 09:57:38;;;;;;;12.85;7.43;;;22.60;99.90;;;;;;5095332;28;20477;-70
2023/09/27 10:00:12;;;;;;;11.95;7.80;;;22.60;99.90;;;;;;5078437;28;20062;-70
2023/09/27 10:02:49;;;;;;;12.88;8.10;;;22.60;99.90;;;;;;5113594;28;20042;-70
2023/09/27 10:05:19;;;;;;;11.60;6.85;;;22.50;99.90;;;;;;5113161;28;20052;-71
2023/09/27 10:07:46;;;;;;;13.40;7.00;;;22.50;99.90;;;;;;5095162;28;20047;-70
2023/09/27 10:10:15;;;;;;;13.55;6.78;;;22.40;99.90;;;;;;5094743;28;20040;-69
2023/09/27 10:12:44;;;;;;;11.15;6.35;;;22.40;99.90;;;;;;5112740;28;20511;-68
2023/09/27 10:15:12;;;;;;;13.95;5.95;;;22.40;99.90;;;;;;5094446;28;20055;-69
2023/09/27 10:17:38;;;;;;;13.20;5.50;;;22.40;99.90;;;;;;5111697;28;20082;-69
2023/09/27 10:20:14;;;;;;;12.40;5.10;;;22.30;99.90;;;;;;5093985;28;20081;-68
2023/09/27 10:22:41;;;;;;;10.02;4.95;;;22.30;99.90;;;;;;5113102;28;20048;-68
2023/09/27 10:25:27;;;;;;;9.02;5.25;;;22.30;99.90;;;;;;5094543;28;20043;-67
2023/09/27 10:28:01;;;;;;;9.73;4.57;;;22.30;99.90;;;;;;5077199;28;20097;-66
2023/09/27 10:30:48;;;;;;;10.43;5.45;;;22.40;99.90;;;;;;5111960;28;20051;-67
2023/09/27 10:33:17;;;;;;;11.95;6.03;;;22.50;99.90;;;;;;5112304;28;20054;-66
2023/09/27 10:35:47;;;;;;;12.68;5.93;;;22.40;99.90;;;;;;5112592;28;20047;-67
2023/09/27 10:38:13;;;;;;;14.20;5.28;;;22.40;99.90;;;;;;5111960;28;20508;-66
2023/09/27 10:40:46;;;;;;;10.48;5.38;;;22.50;99.90;;;;;;5077250;28;20043;-68
2023/09/27 10:43:34;;;;;;;8.77;5.13;;;22.50;99.90;;;;;;5112123;28;20049;-67
2023/09/27 10:46:00;;;;;;;12.85;5.03;;;22.40;99.90;;;;;;5094363;28;20719;-71
2023/09/27 10:48:26;;;;;;;12.70;5.28;;;22.30;99.90;;;;;;5093832;28;20047;-67
2023/09/27 10:50:52;;;;;;;12.65;5.70;;;22.10;99.90;;;;;;5094566;28;20052;-67
2023/09/27 10:53:18;;;;;;;9.70;5.45;;;22.10;99.90;;;;;;5110564;28;20036;-67
2023/09/27 10:55:44;;;;;;;10.82;5.63;;;22.20;99.90;;;;;;5112177;28;20047;-67
2023/09/27 10:58:15;;;;;;;12.68;5.43;;;22.20;99.90;;;;;;5112208;28;20145;-67
2023/09/27 11:01:04;;;;;;;10.60;4.50;;;22.30;99.90;;;;;;5094494;28;20138;-67
2023/09/27 11:03:30;;;;;;;11.50;4.10;;;22.10;99.90;;;;;;5094302;28;20470;-67
2023/09/27 11:06:08;;;;;;;9.18;3.97;;;22.10;99.90;;;;;;5112552;28;20083;-67
2023/09/27 11:08:34;;;;;;;7.25;3.80;;;22.10;99.90;;;;;;5094410;28;20108;-68
2023/09/27 11:10:59;;;;;;;8.10;4.28;;;22.10;99.90;;;;;;5112472;28;20043;-66
2023/09/27 11:13:29;;;;;;;9.80;4.43;;;22.10;99.90;;;;;;5060260;28;20348;-67
2023/09/27 11:16:07;;;;;;;7.90;4.50;;;22.00;99.90;;;;;;5112409;28;20043;-66
2023/09/27 11:18:34;;;;;;;10.57;4.57;;;22.00;99.90;;;;;;5094411;28;20071;-67
2023/09/27 11:21:09;;;;;;;12.65;4.90;;;22.00;99.90;;;;;;5094501;28;20051;-68
2023/09/27 11:23:54;;;;;;;9.60;4.28;;;22.00;99.90;;;;;;5112165;28;20043;-67
2023/09/27 11:26:42;;;;;;;10.57;4.55;;;22.00;99.90;;;;;;5077161;28;20431;-67
2023/09/27 11:29:07;;;;;;;8.35;4.70;;;22.00;99.90;;;;;;5093423;28;20131;-66
2023/09/27 11:31:35;;;;;;;9.20;4.60;;;22.00;99.90;;;;;;5077037;28;20135;-66
2023/09/27 11:34:13;;;;;;;9.32;4.18;;;22.10;99.90;;;;;;5112274;28;20070;-67
2023/09/27 11:36:40;;;;;;;11.15;4.95;;;22.00;99.90;;;;;;5094280;28;20043;-67
2023/09/27 11:39:06;;;;;;;13.82;5.47;;;22.00;99.90;;;;;;5112415;28;20083;-69
2023/09/27 11:41:32;;;;;;;11.40;6.47;;;22.00;99.90;;;;;;5095882;28;20097;-68
2023/09/27 11:43:58;;;;;;;10.35;5.53;;;22.00;99.90;;;;;;5116202;28;20120;-67
2023/09/27 11:46:28;;;;;;;9.80;5.60;;;22.00;99.90;;;;;;5115768;28;20059;-67
2023/09/27 11:48:53;;;;;;;11.68;6.20;;;21.90;99.90;;;;;;5098087;28;20040;-67
2023/09/27 11:51:19;;;;;;;8.82;5.60;;;21.90;99.90;;;;;;5097700;28;20439;-66
2023/09/27 11:53:45;;;;;;;9.20;6.05;;;21.90;99.90;;;;;;5115973;28;20036;-67
2023/09/27 11:56:12;;;;;;;10.18;5.88;;;21.90;99.90;;;;;;5115851;28;20051;-67
2023/09/27 11:58:37;;;;;;;11.63;6.38;;;21.90;99.90;;;;;;5080979;28;20055;-67
2023/09/27 12:01:05;;;;;;;12.77;7.03;;;21.90;99.90;;;;;;5097656;28;20039;-67
2023/09/27 12:03:31;;;;;;;11.80;6.60;;;21.90;99.90;;;;;;5097223;28;20172;-68
2023/09/27 12:05:57;;;;;;;13.90;7.78;;;22.00;99.90;;;;;;5115521;28;20096;-68
2023/09/27 12:08:22;;;;;;;11.18;7.03;;;22.00;99.90;;;;;;5097411;28;20050;-68
2023/09/27 12:10:48;;;;;;;10.35;6.93;;;22.10;99.90;;;;;;5097908;28;20193;-68
2023/09/27 12:13:14;;;;;;;14.52;7.22;;;22.20;99.90;;;;;;5097405;28;20050;-67
2023/09/27 12:15:41;;;;;;;12.15;7.38;;;22.30;99.90;;;;;;5115586;28;20548;-67
2023/09/27 12:18:06;;;;;;;11.63;7.30;;;22.30;99.90;;;;;;5097727;28;20435;-67
2023/09/27 12:20:33;;;;;;;13.70;7.53;;;22.40;99.90;;;;;;5115407;28;20112;-68
2023/09/27 12:22:58;;;;;;;12.85;7.05;;;22.60;99.90;;;;;;5097319;28;20035;-67
2023/09/27 12:25:25;;;;;;;12.13;7.07;;;22.70;99.90;;;;;;5080349;28;20044;-67
2023/09/27 12:27:54;;;;;;;10.02;6.95;;;22.80;99.90;;;;;;5097562;28;20446;-68
2023/09/27 12:30:20;;;;;;;9.18;6.95;;;22.90;99.90;;;;;;5063202;28;20055;-67
2023/09/27 12:32:46;;;;;;;11.68;6.85;;;22.90;99.90;;;;;;5115476;28;20039;-68
2023/09/27 12:35:11;;;;;;;11.35;7.18;;;22.90;99.90;;;;;;5115558;28;20109;-68